createdAt,value
2019-02-21T00:01:49.993Z,28.67
2019-02-21T00:04:25.903Z,26.13
2019-02-21T00:06:55.489Z,25.50
2019-02-21T00:09:24.826Z,23.40
2019-02-21T00:11:54.153Z,27.37
2019-02-21T00:14:23.487Z,25.47
2019-02-21T00:16:52.852Z,27.50
2019-02-21T00:19:22.177Z,25.87
2019-02-21T00:21:51.538Z,26.60
2019-02-21T00:24:20.872Z,26.10
2019-02-21T00:26:50.203Z,25.60
2019-02-21T00:29:19.585Z,24.00
2019-02-21T00:31:49.204Z,25.63
2019-02-21T00:34:18.508Z,23.70
2019-02-21T00:36:48.191Z,25.47
2019-02-21T00:39:17.560Z,23.37
2019-02-21T00:41:46.895Z,28.20
2019-02-21T00:44:16.569Z,25.17
2019-02-21T00:46:45.916Z,24.07
2019-02-21T00:49:15.585Z,24.00
2019-02-21T00:51:44.942Z,25.70
2019-02-21T00:54:14.272Z,23.93
2019-02-21T00:56:43.583Z,22.70
2019-02-21T00:59:12.902Z,23.27
2019-02-21T01:01:42.224Z,25.20
2019-02-21T01:04:11.556Z,26.67
2019-02-21T01:06:41.177Z,24.83
2019-02-21T01:09:10.497Z,27.60
2019-02-21T01:11:40.081Z,24.43
2019-02-21T01:14:09.756Z,24.80
2019-02-21T01:16:39.079Z,25.93
2019-02-21T01:19:08.407Z,22.60
2019-02-21T01:21:38.012Z,20.93
2019-02-21T01:24:07.352Z,21.83
2019-02-21T01:26:36.702Z,23.00
2019-02-21T01:29:06.020Z,24.63
2019-02-21T01:31:38.018Z,24.73
2019-02-21T01:34:07.351Z,22.07
2019-02-21T01:36:36.686Z,21.37
2019-02-21T01:39:06.905Z,24.47
2019-02-21T01:41:36.252Z,22.10
2019-02-21T01:44:05.645Z,26.13
2019-02-21T01:46:35.252Z,22.57
2019-02-21T01:49:04.587Z,21.60
2019-02-21T01:51:35.575Z,21.50
2019-02-21T01:54:04.883Z,21.70
2019-02-21T01:56:34.494Z,21.97
2019-02-21T01:59:03.850Z,21.30
2019-02-21T02:01:33.652Z,23.03
2019-02-21T02:04:03.221Z,23.93
2019-02-21T02:06:32.605Z,21.07
2019-02-21T02:09:01.914Z,22.77
2019-02-21T02:11:31.543Z,24.67
2019-02-21T02:14:00.898Z,23.03
2019-02-21T02:16:30.242Z,26.03
2019-02-21T02:18:59.606Z,22.03
2019-02-21T02:21:28.940Z,24.30
2019-02-21T02:23:58.666Z,27.33
2019-02-21T02:26:28.265Z,24.73
2019-02-21T02:28:57.615Z,25.53
2019-02-21T02:31:27.236Z,24.50
2019-02-21T02:33:56.815Z,24.43
2019-02-21T02:36:26.436Z,24.57
2019-02-21T02:38:56.041Z,26.27
2019-02-21T02:41:25.662Z,28.70
2019-02-21T02:43:55.264Z,24.97
2019-02-21T02:46:24.638Z,22.87
2019-02-21T02:48:53.960Z,28.60
2019-02-21T02:51:23.281Z,21.23
2019-02-21T02:53:52.983Z,22.93
2019-02-21T02:56:22.277Z,22.40
2019-02-21T02:58:52.325Z,23.73
2019-02-21T03:01:34.043Z,23.77
2019-02-21T03:03:52.966Z,22.80
2019-02-21T03:06:22.309Z,24.70
2019-02-21T03:08:51.877Z,21.10
2019-02-21T03:11:21.219Z,24.57
2019-02-21T03:13:50.804Z,21.13
2019-02-21T03:16:20.372Z,25.77
2019-02-21T03:18:49.702Z,28.93
2019-02-21T03:21:19.060Z,28.03
2019-02-21T03:23:48.647Z,24.30
2019-02-21T03:26:18.313Z,24.87
2019-02-21T03:28:47.937Z,23.77
2019-02-21T03:31:17.280Z,27.00
2019-02-21T03:33:46.742Z,24.53
2019-02-21T03:36:16.099Z,24.80
2019-02-21T03:38:45.434Z,25.10
2019-02-21T03:41:14.821Z,23.50
2019-02-21T03:43:44.152Z,22.53
2019-02-21T03:46:13.525Z,25.67
2019-02-21T03:48:43.128Z,21.43
2019-02-21T03:51:12.509Z,28.63
2019-02-21T03:53:41.826Z,24.30
2019-02-21T03:56:11.181Z,21.87
2019-02-21T03:58:40.535Z,23.80
2019-02-21T04:01:10.146Z,24.60
2019-02-21T04:03:39.864Z,23.33
2019-02-21T04:06:09.475Z,25.00
2019-02-21T04:08:38.819Z,25.07
2019-02-21T04:11:08.119Z,22.53
2019-02-21T04:13:37.480Z,24.43
2019-02-21T04:16:07.183Z,24.73
2019-02-21T04:18:36.783Z,23.57
2019-02-21T04:21:06.140Z,25.40
2019-02-21T04:23:35.765Z,26.47
2019-02-21T04:26:05.354Z,23.90
2019-02-21T04:28:34.721Z,24.50
2019-02-21T04:31:04.057Z,27.13
2019-02-21T04:33:34.507Z,25.67
2019-02-21T04:36:03.956Z,24.53
2019-02-21T04:38:33.289Z,25.97
2019-02-21T04:41:02.858Z,26.30
2019-02-21T04:43:32.484Z,22.37
2019-02-21T04:46:02.240Z,22.00
2019-02-21T04:48:31.543Z,25.13
2019-02-21T04:51:00.878Z,21.93
2019-02-21T04:53:30.223Z,23.80
2019-02-21T04:55:59.547Z,19.20
2019-02-21T04:58:28.877Z,24.87
2019-02-21T05:00:58.202Z,27.13
2019-02-21T05:03:27.788Z,20.43
2019-02-21T05:05:57.373Z,22.93
2019-02-21T05:08:26.960Z,23.20
2019-02-21T05:10:56.279Z,23.03
2019-02-21T05:13:25.630Z,21.47
2019-02-21T05:15:55.196Z,23.00
2019-02-21T05:18:24.523Z,24.37
2019-02-21T05:20:53.851Z,21.97
2019-02-21T05:23:23.468Z,21.60
2019-02-21T05:25:52.787Z,21.70
2019-02-21T05:28:32.189Z,21.47
2019-02-21T05:31:03.447Z,24.03
2019-02-21T05:33:40.398Z,22.20
2019-02-21T05:36:15.152Z,26.73
2019-02-21T05:38:46.403Z,24.03
2019-02-21T05:41:19.964Z,20.83
2019-02-21T05:43:50.955Z,20.13
2019-02-21T05:46:24.594Z,21.90
2019-02-21T05:48:55.585Z,19.93
2019-02-21T05:51:26.539Z,20.80
2019-02-21T05:53:57.815Z,19.57
2019-02-21T05:56:28.754Z,24.30
2019-02-21T05:59:02.828Z,23.63
2019-02-21T06:01:39.910Z,24.33
2019-02-21T06:04:22.722Z,23.43
2019-02-21T06:06:56.733Z,21.80
2019-02-21T06:09:33.657Z,24.30
2019-02-21T06:12:32.887Z,23.90
2019-02-21T06:14:53.757Z,20.93
2019-02-21T06:17:27.389Z,25.23
2019-02-21T06:20:04.555Z,22.60
2019-02-21T06:22:41.437Z,23.40
2019-02-21T06:25:21.467Z,23.53
2019-02-21T06:28:07.257Z,23.50
2019-02-21T06:30:38.488Z,23.53
2019-02-21T06:33:08.079Z,26.27
2019-02-21T06:35:37.419Z,24.53
2019-02-21T06:38:06.779Z,25.43
2019-02-21T06:40:36.615Z,23.13
2019-02-21T06:43:06.042Z,26.87
2019-02-21T06:45:35.328Z,24.97
2019-02-21T06:48:04.954Z,27.13
2019-02-21T06:50:34.262Z,22.10
2019-02-21T06:53:03.830Z,23.10
2019-02-21T06:55:33.150Z,20.50
2019-02-21T06:58:02.481Z,24.07
2019-02-21T07:00:31.792Z,25.50
2019-02-21T07:03:01.127Z,21.80
2019-02-21T07:05:30.428Z,23.93
2019-02-21T07:07:59.748Z,23.33
2019-02-21T07:10:29.355Z,23.57
2019-02-21T07:12:58.969Z,22.73
2019-02-21T07:15:28.332Z,23.13
2019-02-21T07:17:58.450Z,21.17
2019-02-21T07:20:28.175Z,24.43
2019-02-21T07:22:57.761Z,23.03
2019-02-21T07:25:29.047Z,23.97
2019-02-21T07:27:58.533Z,22.80
2019-02-21T07:30:28.104Z,24.93
2019-02-21T07:32:57.464Z,24.43
2019-02-21T07:35:27.036Z,26.90
2019-02-21T07:37:56.365Z,24.93
2019-02-21T07:40:25.968Z,24.73
2019-02-21T07:42:55.642Z,27.27
2019-02-21T07:45:24.968Z,22.33
2019-02-21T07:47:54.458Z,23.53
2019-02-21T07:50:23.895Z,25.10
2019-02-21T07:53:02.098Z,23.20
2019-02-21T07:55:24.871Z,21.50
2019-02-21T07:57:54.481Z,26.43
2019-02-21T08:00:23.793Z,30.30
2019-02-21T08:02:53.449Z,27.07
2019-02-21T08:05:23.693Z,27.20
2019-02-21T08:07:53.192Z,26.60
2019-02-21T08:10:33.118Z,26.10
2019-02-21T08:12:54.130Z,24.33
2019-02-21T08:15:23.439Z,23.80
2019-02-21T08:17:52.784Z,26.97
2019-02-21T08:20:33.229Z,28.27
2019-02-21T08:22:53.698Z,30.83
2019-02-21T08:25:23.067Z,27.60
2019-02-21T08:27:52.681Z,28.27
2019-02-21T08:30:22.124Z,31.10
2019-02-21T08:33:08.157Z,30.53
2019-02-21T08:35:37.523Z,26.43
2019-02-21T08:38:07.134Z,27.07
2019-02-21T08:40:36.914Z,29.27
2019-02-21T08:43:09.105Z,29.33
2019-02-21T08:45:38.413Z,32.57
2019-02-21T08:48:08.040Z,25.03
2019-02-21T08:50:37.657Z,23.90
2019-02-21T08:53:07.234Z,30.23
2019-02-21T08:55:36.810Z,25.20
2019-02-21T08:58:07.884Z,29.73
2019-02-21T09:00:37.355Z,31.07
2019-02-21T09:03:06.926Z,28.73
2019-02-21T09:05:36.267Z,29.97
2019-02-21T09:08:05.847Z,29.53
2019-02-21T09:10:35.161Z,26.77
2019-02-21T09:13:04.622Z,25.97
2019-02-21T09:15:33.940Z,29.83
2019-02-21T09:18:03.540Z,27.50
2019-02-21T09:20:32.863Z,26.47
2019-02-21T09:23:02.234Z,25.37
2019-02-21T09:25:31.843Z,28.17
2019-02-21T09:28:01.255Z,27.17
2019-02-21T09:30:30.606Z,27.77
2019-02-21T09:33:00.075Z,30.70
2019-02-21T09:35:29.481Z,28.00
2019-02-21T09:37:59.098Z,29.50
2019-02-21T09:40:28.805Z,30.47
2019-02-21T09:42:58.433Z,27.17
2019-02-21T09:45:28.046Z,24.60
2019-02-21T09:47:57.452Z,28.80
2019-02-21T09:50:27.126Z,30.77
2019-02-21T09:52:56.732Z,28.53
2019-02-21T09:55:26.317Z,26.93
2019-02-21T09:57:55.934Z,27.80
2019-02-21T10:00:25.641Z,30.30
2019-02-21T10:02:56.698Z,30.07
2019-02-21T10:05:26.494Z,25.80
2019-02-21T10:07:55.866Z,27.90
2019-02-21T10:10:25.440Z,31.60
2019-02-21T10:12:55.056Z,28.03
2019-02-21T10:15:24.656Z,28.17
2019-02-21T10:17:53.983Z,31.17
2019-02-21T10:20:23.949Z,28.33
2019-02-21T10:22:53.281Z,29.53
2019-02-21T10:25:26.100Z,28.17
2019-02-21T10:27:55.684Z,27.73
2019-02-21T10:30:25.348Z,24.57
2019-02-21T10:32:54.680Z,28.80
2019-02-21T10:35:24.371Z,25.80
2019-02-21T10:37:53.971Z,30.23
2019-02-21T10:40:23.292Z,27.43
2019-02-21T10:42:52.887Z,27.37
2019-02-21T10:45:23.305Z,28.10
2019-02-21T10:47:52.617Z,26.33
2019-02-21T10:50:22.578Z,23.37
2019-02-21T10:52:51.918Z,28.37
2019-02-21T10:55:21.527Z,28.43
2019-02-21T10:57:50.892Z,24.67
2019-02-21T11:00:27.627Z,23.07
2019-02-21T11:02:57.347Z,25.60
2019-02-21T11:05:26.685Z,28.10
2019-02-21T11:07:56.327Z,28.07
2019-02-21T11:10:30.670Z,29.27
2019-02-21T11:13:00.017Z,30.67
2019-02-21T11:15:29.338Z,28.00
2019-02-21T11:17:58.933Z,29.50
2019-02-21T11:20:28.558Z,29.73
2019-02-21T11:22:57.872Z,29.77
2019-02-21T11:25:27.459Z,27.90
2019-02-21T11:27:56.797Z,26.97
2019-02-21T11:30:26.445Z,30.70
2019-02-21T11:32:55.794Z,30.47
2019-02-21T11:35:25.106Z,26.57
2019-02-21T11:37:54.440Z,25.73
2019-02-21T11:40:24.088Z,26.63
2019-02-21T11:42:53.682Z,25.77
2019-02-21T11:45:23.001Z,26.63
2019-02-21T11:47:52.560Z,23.27
2019-02-21T11:50:21.914Z,24.17
2019-02-21T11:52:51.224Z,26.20
2019-02-21T11:55:25.659Z,25.93
2019-02-21T11:57:54.992Z,26.03
2019-02-21T12:00:31.530Z,26.33
2019-02-21T12:03:01.125Z,27.80
2019-02-21T12:05:31.905Z,28.23
2019-02-21T12:08:01.632Z,25.70
2019-02-21T12:10:30.972Z,25.57
2019-02-21T12:13:00.609Z,26.57
2019-02-21T12:15:30.219Z,24.90
2019-02-21T12:17:59.814Z,25.00
2019-02-21T12:20:29.531Z,25.47
2019-02-21T12:22:59.207Z,24.17
2019-02-21T12:25:28.541Z,27.53
2019-02-21T12:27:58.191Z,23.63
2019-02-21T12:30:27.787Z,25.60
2019-02-21T12:32:57.501Z,24.70
2019-02-21T12:35:29.896Z,26.60
2019-02-21T12:37:58.454Z,23.23
2019-02-21T12:40:28.054Z,25.50
2019-02-21T12:42:57.388Z,25.43
2019-02-21T12:45:30.212Z,27.30
2019-02-21T12:47:59.606Z,24.60
2019-02-21T12:50:28.950Z,22.30
2019-02-21T12:52:58.534Z,22.17
2019-02-21T12:55:31.594Z,21.80
2019-02-21T12:57:59.217Z,22.13
2019-02-21T13:00:28.557Z,21.40
2019-02-21T13:02:57.926Z,20.90
2019-02-21T13:05:27.269Z,20.20
2019-02-21T13:07:56.595Z,20.60
2019-02-21T13:10:26.229Z,19.93
2019-02-21T13:12:55.560Z,19.67
2019-02-21T13:15:25.173Z,19.97
2019-02-21T13:17:54.787Z,19.13
2019-02-21T13:20:24.123Z,19.87
2019-02-21T13:22:53.738Z,19.97
2019-02-21T13:25:23.053Z,20.97
2019-02-21T13:27:52.400Z,18.90
2019-02-21T13:30:22.021Z,17.57
2019-02-21T13:32:51.631Z,17.70
2019-02-21T13:35:21.243Z,18.30
2019-02-21T13:37:50.936Z,18.97
2019-02-21T13:40:21.329Z,18.40
2019-02-21T13:42:50.966Z,18.60
2019-02-21T13:45:20.313Z,16.40
2019-02-21T13:47:50.033Z,15.13
2019-02-21T13:50:23.710Z,17.43
2019-02-21T13:52:52.675Z,17.87
2019-02-21T13:55:22.321Z,18.40
2019-02-21T13:57:51.999Z,18.53
2019-02-21T14:00:24.911Z,18.93
2019-02-21T14:02:54.258Z,16.23
2019-02-21T14:05:24.057Z,17.20
2019-02-21T14:07:53.399Z,17.80
2019-02-21T14:10:22.730Z,18.53
2019-02-21T14:12:52.432Z,17.93
2019-02-21T14:15:30.210Z,16.67
2019-02-21T14:17:59.829Z,18.93
2019-02-21T14:20:29.433Z,16.70
2019-02-21T14:22:59.156Z,16.80
2019-02-21T14:25:40.001Z,17.57
2019-02-21T14:28:00.320Z,16.73
2019-02-21T14:30:30.057Z,16.73
2019-02-21T14:32:59.672Z,18.40
2019-02-21T14:35:28.995Z,28.13
2019-02-21T14:37:58.621Z,22.57
2019-02-21T14:40:27.966Z,20.10
2019-02-21T14:42:57.285Z,19.77
2019-02-21T14:45:27.280Z,22.37
2019-02-21T14:47:56.974Z,20.10
2019-02-21T14:50:26.576Z,22.13
2019-02-21T14:52:55.918Z,19.20
2019-02-21T14:55:25.579Z,20.83
2019-02-21T14:57:55.171Z,20.50
2019-02-21T15:00:30.001Z,21.33
2019-02-21T15:02:59.619Z,22.30
2019-02-21T15:05:29.013Z,23.23
2019-02-21T15:07:58.347Z,21.47
2019-02-21T15:10:27.722Z,22.47
2019-02-21T15:12:57.042Z,22.37
2019-02-21T15:15:27.700Z,21.83
2019-02-21T15:18:06.847Z,22.90
2019-02-21T15:20:36.440Z,25.83
2019-02-21T15:22:59.240Z,23.97
2019-02-21T15:25:28.769Z,22.70
2019-02-21T15:27:58.497Z,22.83
2019-02-21T15:30:28.096Z,21.93
2019-02-21T15:32:57.725Z,24.70
2019-02-21T15:35:27.065Z,26.20
2019-02-21T15:37:56.697Z,23.60
2019-02-21T15:40:26.008Z,22.73
2019-02-21T15:42:55.351Z,24.43
2019-02-21T15:45:27.739Z,24.37
2019-02-21T15:47:57.105Z,26.40
2019-02-21T15:50:26.420Z,25.10
2019-02-21T15:52:57.402Z,23.47
2019-02-21T15:55:27.035Z,22.40
2019-02-21T15:58:04.028Z,23.87
2019-02-21T16:00:27.475Z,26.73
2019-02-21T16:02:56.794Z,25.80
2019-02-21T16:05:26.411Z,28.20
2019-02-21T16:07:55.755Z,23.53
2019-02-21T16:10:29.103Z,23.07
2019-02-21T16:12:58.832Z,23.80
2019-02-21T16:15:30.335Z,23.83
2019-02-21T16:18:00.039Z,24.80
2019-02-21T16:20:29.741Z,25.60
2019-02-21T16:22:59.452Z,22.13
2019-02-21T16:25:33.666Z,21.90
2019-02-21T16:28:03.039Z,23.83
2019-02-21T16:30:32.414Z,25.43
2019-02-21T16:33:01.837Z,25.70
2019-02-21T16:35:31.407Z,21.83
2019-02-21T16:38:00.775Z,22.73
2019-02-21T16:40:30.450Z,24.07
2019-02-21T16:43:00.167Z,25.33
2019-02-21T16:45:42.467Z,22.37
2019-02-21T16:48:00.584Z,22.03
2019-02-21T16:50:30.391Z,21.70
2019-02-21T16:52:59.941Z,23.17
2019-02-21T16:55:30.180Z,23.73
2019-02-21T16:57:59.785Z,22.13
2019-02-21T17:00:38.937Z,20.70
2019-02-21T17:03:00.408Z,20.47
2019-02-21T17:05:30.068Z,21.10
2019-02-21T17:07:59.652Z,18.27
2019-02-21T17:10:28.997Z,19.90
2019-02-21T17:12:58.375Z,19.30
2019-02-21T17:15:27.712Z,22.97
2019-02-21T17:17:57.082Z,33.13
2019-02-21T17:20:26.824Z,34.30
2019-02-21T17:22:56.476Z,22.33
2019-02-21T17:25:25.807Z,43.80
2019-02-21T17:27:55.426Z,22.10
2019-02-21T17:30:24.799Z,20.47
2019-02-21T17:32:54.497Z,19.97
2019-02-21T17:35:24.209Z,22.33
2019-02-21T17:37:53.784Z,19.43
2019-02-21T17:40:25.044Z,19.80
2019-02-21T17:42:54.360Z,19.27
2019-02-21T17:45:24.032Z,20.60
2019-02-21T17:47:53.368Z,19.90
2019-02-21T17:50:22.680Z,18.23
2019-02-21T17:52:52.270Z,19.70
2019-02-21T17:55:21.616Z,18.63
2019-02-21T17:57:51.294Z,17.70
2019-02-21T18:00:27.327Z,16.33
2019-02-21T18:02:56.683Z,16.30
2019-02-21T18:05:26.097Z,16.57
2019-02-21T18:07:55.694Z,18.00
2019-02-21T18:10:25.037Z,18.60
2019-02-21T18:12:54.365Z,21.60
2019-02-21T18:15:23.783Z,19.90
2019-02-21T18:17:53.384Z,20.20
2019-02-21T18:20:22.703Z,20.30
2019-02-21T18:22:52.314Z,19.97
2019-02-21T18:25:38.477Z,20.33
2019-02-21T18:28:08.071Z,18.43
2019-02-21T18:30:37.446Z,19.60
2019-02-21T18:33:06.828Z,19.23
2019-02-21T18:35:36.189Z,21.33
2019-02-21T18:38:05.520Z,20.67
2019-02-21T18:40:34.858Z,19.97
2019-02-21T18:43:04.501Z,20.43
2019-02-21T18:45:34.111Z,20.60
2019-02-21T18:48:03.511Z,23.20
2019-02-21T18:50:38.190Z,22.70
2019-02-21T18:53:04.584Z,22.47
2019-02-21T18:55:34.167Z,26.40
2019-02-21T18:58:03.536Z,24.57
2019-02-21T19:00:33.185Z,25.43
2019-02-21T19:03:02.791Z,26.60
2019-02-21T19:05:35.999Z,25.83
2019-02-21T19:08:05.360Z,40.80
2019-02-21T19:10:34.892Z,28.93
2019-02-21T19:13:04.470Z,25.97
2019-02-21T19:15:34.219Z,24.67
2019-02-21T19:20:33.175Z,27.27
2019-02-21T19:23:02.835Z,29.17
2019-02-21T19:25:32.145Z,27.23
2019-02-21T19:28:01.766Z,27.97
2019-02-21T19:30:51.055Z,26.47
2019-02-21T19:33:20.693Z,26.97
2019-02-21T19:35:50.173Z,25.67
2019-02-21T19:38:19.862Z,26.87
2019-02-21T19:40:49.234Z,26.53
2019-02-21T19:43:18.594Z,30.77
2019-02-21T19:45:48.172Z,27.53
2019-02-21T19:48:17.493Z,27.07
2019-02-21T19:50:46.930Z,26.33
2019-02-21T19:53:16.578Z,27.57
2019-02-21T19:55:45.900Z,27.63
2019-02-21T19:58:15.498Z,26.97
2019-02-21T20:00:44.827Z,29.43
2019-02-21T20:03:14.539Z,24.50
2019-02-21T20:05:44.185Z,28.83
2019-02-21T20:08:20.926Z,30.13
2019-02-21T20:10:44.646Z,26.43
2019-02-21T20:13:15.258Z,31.03
2019-02-21T20:15:45.144Z,30.97
2019-02-21T20:18:14.785Z,30.67
2019-02-21T20:20:44.123Z,31.57
2019-02-21T20:23:13.728Z,30.73
2019-02-21T20:25:43.071Z,31.13
2019-02-21T20:28:12.664Z,32.83
2019-02-21T20:30:42.049Z,31.77
2019-02-21T20:33:11.664Z,31.20
2019-02-21T20:35:41.279Z,33.73
2019-02-21T20:38:10.632Z,32.17
2019-02-21T20:40:39.988Z,30.97
2019-02-21T20:43:09.684Z,35.87
2019-02-21T20:45:39.290Z,37.27
2019-02-21T20:48:08.866Z,38.03
2019-02-21T20:50:38.571Z,32.60
2019-02-21T20:53:07.878Z,35.63
2019-02-21T20:55:43.857Z,38.87
2019-02-21T20:58:11.497Z,40.23
2019-02-21T21:00:40.034Z,38.87
2019-02-21T21:03:09.406Z,36.57
2019-02-21T21:05:39.014Z,38.40
2019-02-21T21:08:08.733Z,36.43
2019-02-21T21:10:38.304Z,37.10
2019-02-21T21:13:07.930Z,37.93
2019-02-21T21:15:37.838Z,39.77
2019-02-21T21:18:07.434Z,39.93
2019-02-21T21:20:37.140Z,40.47
2019-02-21T21:23:06.750Z,41.90
2019-02-21T21:25:36.478Z,44.83
2019-02-21T21:28:06.177Z,41.27
2019-02-21T21:30:35.897Z,42.03
2019-02-21T21:33:05.223Z,46.10
2019-02-21T21:35:34.887Z,44.80
2019-02-21T21:38:04.491Z,45.33
2019-02-21T21:40:33.811Z,45.90
2019-02-21T21:43:03.158Z,44.90
2019-02-21T21:45:32.461Z,50.27
2019-02-21T21:48:02.103Z,50.57
2019-02-21T21:50:31.440Z,47.77
2019-02-21T21:53:00.752Z,47.53
2019-02-21T21:55:30.410Z,49.43
2019-02-21T21:57:59.769Z,50.47
2019-02-21T22:00:29.072Z,51.53
2019-02-21T22:02:58.713Z,51.87
2019-02-21T22:05:28.046Z,54.17
2019-02-21T22:07:57.731Z,53.67
2019-02-21T22:10:27.060Z,54.43
2019-02-21T22:12:56.737Z,64.33
2019-02-21T22:15:26.093Z,53.37
2019-02-21T22:17:55.748Z,56.20
2019-02-21T22:20:25.451Z,57.20
2019-02-21T22:22:54.785Z,58.80
2019-02-21T22:25:24.169Z,60.10
2019-02-21T22:27:53.499Z,63.67
2019-02-21T22:30:22.909Z,64.53
2019-02-21T22:32:52.306Z,67.43
2019-02-21T22:35:21.970Z,71.30
2019-02-21T22:37:51.562Z,75.87
2019-02-21T22:40:22.111Z,78.90
2019-02-21T22:42:51.819Z,72.13
2019-02-21T22:45:21.197Z,81.23
2019-02-21T22:47:50.521Z,79.03
2019-02-21T22:50:20.838Z,80.83
2019-02-21T22:52:50.155Z,76.13
2019-02-21T22:55:19.852Z,75.30
2019-02-21T22:57:49.437Z,73.63
2019-02-21T23:00:42.509Z,69.30
2019-02-21T23:03:12.465Z,79.27
2019-02-21T23:06:29.423Z,84.37
2019-02-21T23:08:58.746Z,77.57
2019-02-21T23:11:28.073Z,79.83
2019-02-21T23:13:57.473Z,80.07
2019-02-21T23:16:27.470Z,78.57
2019-02-21T23:18:56.851Z,81.43
2019-02-21T23:21:26.660Z,76.93
2019-02-21T23:23:56.253Z,78.50
2019-02-21T23:26:25.592Z,70.97
2019-02-21T23:28:54.964Z,75.73
2019-02-21T23:31:24.276Z,76.90
2019-02-21T23:33:55.520Z,73.70
2019-02-21T23:36:25.233Z,78.83
2019-02-21T23:38:54.553Z,77.03
2019-02-21T23:41:25.487Z,76.43
2019-02-21T23:43:54.837Z,81.73
2019-02-21T23:46:24.239Z,79.80
2019-02-21T23:48:53.556Z,83.33
2019-02-21T23:51:23.167Z,79.63
2019-02-21T23:54:02.484Z,79.77
2019-02-21T23:56:23.660Z,82.40
2019-02-21T23:58:53.010Z,85.03
